sensor_id;sensor_type;location;lat;lon;timestamp;temperature;humidity
11583;DHT22;34299;50.820;4.548;2023-08-08T08:45:22;16.40;99.90
11583;DHT22;34299;50.820;4.548;2023-08-08T11:51:00;17.00;99.90
11583;DHT22;34299;50.820;4.548;2023-08-08T13:41:54;19.40;99.90
11583;DHT22;34299;50.820;4.548;2023-08-08T13:44:22;21.30;99.90
11583;DHT22;34299;50.820;4.548;2023-08-08T13:46:49;21.20;99.90
11583;DHT22;34299;50.820;4.548;2023-08-08T14:08:56;21.40;99.90
11583;DHT22;34299;50.820;4.548;2023-08-08T14:11:23;23.10;99.90
11583;DHT22;34299;50.820;4.548;2023-08-08T14:38:27;23.00;99.90
11583;DHT22;34299;50.820;4.548;2023-08-08T14:40:54;20.50;99.90
11583;DHT22;34299;50.820;4.548;2023-08-08T14:43:22;20.40;99.90
11583;DHT22;34299;50.820;4.548;2023-08-08T14:45:49;20.40;99.90
11583;DHT22;34299;50.820;4.548;2023-08-08T14:48:16;20.10;99.90
11583;DHT22;34299;50.820;4.548;2023-08-08T14:50:43;20.10;99.90
11583;DHT22;34299;50.820;4.548;2023-08-08T14:53:12;19.90;99.90
11583;DHT22;34299;50.820;4.548;2023-08-08T14:55:39;19.90;99.90
11583;DHT22;34299;50.820;4.548;2023-08-08T14:58:06;19.90;99.90
11583;DHT22;34299;50.820;4.548;2023-08-08T15:00:33;19.90;99.90
11583;DHT22;34299;50.820;4.548;2023-08-08T15:02:59;20.30;99.90
11583;DHT22;34299;50.820;4.548;2023-08-08T15:05:26;20.60;99.90
11583;DHT22;34299;50.820;4.548;2023-08-08T15:07:54;20.70;99.90
11583;DHT22;34299;50.820;4.548;2023-08-08T15:10:22;20.70;99.90
11583;DHT22;34299;50.820;4.548;2023-08-08T15:12:49;20.70;99.90
11583;DHT22;34299;50.820;4.548;2023-08-08T15:15:16;20.40;99.90
11583;DHT22;34299;50.820;4.548;2023-08-08T15:17:45;20.50;99.90
11583;DHT22;34299;50.820;4.548;2023-08-08T17:13:24;20.10;99.90
11583;DHT22;34299;50.820;4.548;2023-08-08T17:15:51;19.80;99.90
11583;DHT22;34299;50.820;4.548;2023-08-08T17:18:18;19.80;99.90
11583;DHT22;34299;50.820;4.548;2023-08-08T17:20:44;19.80;99.90
11583;DHT22;34299;50.820;4.548;2023-08-08T17:23:11;19.80;99.90
11583;DHT22;34299;50.820;4.548;2023-08-08T17:25:38;19.80;99.90
11583;DHT22;34299;50.820;4.548;2023-08-08T17:28:07;19.70;99.90
11583;DHT22;34299;50.820;4.548;2023-08-08T17:30:34;19.60;99.90
11583;DHT22;34299;50.820;4.548;2023-08-08T17:33:01;19.70;99.90
11583;DHT22;34299;50.820;4.548;2023-08-08T17:35:27;19.60;99.90
11583;DHT22;34299;50.820;4.548;2023-08-08T17:37:54;19.30;99.90
11583;DHT22;34299;50.820;4.548;2023-08-08T17:40:24;18.90;99.90
11583;DHT22;34299;50.820;4.548;2023-08-08T17:42:51;19.20;99.90
11583;DHT22;34299;50.820;4.548;2023-08-08T17:45:19;19.20;99.90
11583;DHT22;34299;50.820;4.548;2023-08-08T17:47:46;19.50;99.90
11583;DHT22;34299;50.820;4.548;2023-08-08T17:50:13;19.40;99.90
11583;DHT22;34299;50.820;4.548;2023-08-08T17:52:40;19.20;99.90
11583;DHT22;34299;50.820;4.548;2023-08-08T17:55:07;19.20;99.90
11583;DHT22;34299;50.820;4.548;2023-08-08T17:57:35;19.10;99.90
